createdAt,value
2023-04-17T00:00:22.143Z,78.79
2023-04-17T00:02:48.662Z,79.04
2023-04-17T00:05:16.880Z,79.19
2023-04-17T00:07:43.710Z,78.40
2023-04-17T00:10:11.607Z,78.56
2023-04-17T00:12:38.444Z,79.44
2023-04-17T00:15:05.633Z,79.10
2023-04-17T00:17:32.178Z,78.79
2023-04-17T00:19:58.710Z,78.75
2023-04-17T00:22:25.331Z,79.83
2023-04-17T00:24:51.777Z,79.84
2023-04-17T00:27:18.256Z,79.35
2023-04-17T00:29:44.686Z,78.95
2023-04-17T00:32:11.348Z,78.89
2023-04-17T00:34:38.137Z,79.36
2023-04-17T00:37:04.610Z,80.01
2023-04-17T00:39:31.293Z,80.10
2023-04-17T00:41:58.546Z,79.61
2023-04-17T00:44:25.142Z,79.20
2023-04-17T00:46:51.651Z,78.84
2023-04-17T00:49:18.295Z,79.10
2023-04-17T00:51:44.787Z,79.09
2023-04-17T00:54:11.476Z,78.91
2023-04-17T00:56:38.262Z,79.57
2023-04-17T00:59:06.495Z,79.76
2023-04-17T01:01:32.976Z,79.31
2023-04-17T01:04:01.825Z,80.54
2023-04-17T01:06:28.645Z,80.62
2023-04-17T01:09:01.441Z,80.47
2023-04-17T01:11:28.344Z,80.13
2023-04-17T01:13:54.915Z,79.71
2023-04-17T01:16:21.481Z,81.46
2023-04-17T01:18:51.340Z,80.29
2023-04-17T01:21:17.977Z,79.91
2023-04-17T01:23:52.789Z,79.18
2023-04-17T01:26:21.378Z,80.05
2023-04-17T01:29:06.965Z,80.89
2023-04-17T01:31:33.536Z,82.55
2023-04-17T01:34:00.583Z,83.56
2023-04-17T01:36:27.673Z,82.77
2023-04-17T01:38:54.140Z,82.56
2023-04-17T01:41:20.601Z,82.40
2023-04-17T01:43:47.659Z,82.11
2023-04-17T01:46:14.356Z,80.98
2023-04-17T01:48:40.986Z,80.93
2023-04-17T01:51:07.544Z,80.10
2023-04-17T01:53:34.339Z,79.83
2023-04-17T01:56:01.876Z,80.30
2023-04-17T01:58:28.624Z,79.97
2023-04-17T02:00:55.104Z,80.08
2023-04-17T02:03:22.909Z,79.72
2023-04-17T02:05:49.910Z,79.43
2023-04-17T02:08:16.747Z,79.62
2023-04-17T02:10:43.501Z,79.83
2023-04-17T02:13:10.769Z,80.07
2023-04-17T02:15:37.548Z,80.33
2023-04-17T02:18:06.266Z,80.14
2023-04-17T02:20:33.598Z,79.93
2023-04-17T02:23:00.981Z,80.54
2023-04-17T02:25:27.963Z,81.05
2023-04-17T02:27:54.895Z,81.18
2023-04-17T02:30:21.548Z,81.31
2023-04-17T02:32:49.856Z,80.87
2023-04-17T02:35:16.355Z,80.66
2023-04-17T02:37:42.849Z,80.65
2023-04-17T02:40:10.387Z,80.67
2023-04-17T02:42:36.910Z,80.46
2023-04-17T02:45:04.537Z,80.49
2023-04-17T02:47:31.101Z,79.95
2023-04-17T02:50:00.110Z,80.83
2023-04-17T02:52:31.080Z,82.11
2023-04-17T02:54:57.601Z,83.33
2023-04-17T02:57:24.536Z,83.10
2023-04-17T02:59:51.722Z,82.28
2023-04-17T03:02:22.211Z,81.37
2023-04-17T03:04:50.352Z,84.77
2023-04-17T03:07:18.797Z,83.18
2023-04-17T03:09:48.612Z,82.68
2023-04-17T03:12:15.905Z,81.90
2023-04-17T03:14:43.428Z,83.19
2023-04-17T03:17:10.944Z,83.53
2023-04-17T03:19:37.855Z,83.33
2023-04-17T03:22:04.582Z,84.67
2023-04-17T03:24:31.573Z,83.34
2023-04-17T03:26:58.687Z,83.33
2023-04-17T03:29:25.316Z,83.29
2023-04-17T03:31:51.881Z,83.36
2023-04-17T03:34:18.795Z,83.15
2023-04-17T03:36:45.340Z,82.86
2023-04-17T03:39:12.132Z,82.81
2023-04-17T03:41:38.899Z,82.21
2023-04-17T03:44:05.803Z,82.15
2023-04-17T03:46:32.290Z,81.42
2023-04-17T03:51:40.077Z,81.67
2023-04-17T03:54:06.584Z,80.36
2023-04-17T03:56:33.100Z,80.63
2023-04-17T03:58:59.790Z,82.37
2023-04-17T04:01:28.425Z,83.48
2023-04-17T04:03:55.547Z,82.77
2023-04-17T04:06:22.475Z,83.00
2023-04-17T04:08:49.540Z,83.85
2023-04-17T04:11:16.298Z,84.43
2023-04-17T04:13:42.746Z,84.41
2023-04-17T04:16:09.338Z,84.46
2023-04-17T04:18:36.975Z,83.71
2023-04-17T04:21:03.684Z,83.42
2023-04-17T04:23:30.618Z,83.63
2023-04-17T04:25:58.021Z,84.23
2023-04-17T04:28:24.593Z,83.91
2023-04-17T04:30:53.596Z,82.54
2023-04-17T04:33:20.920Z,82.34
2023-04-17T04:35:48.361Z,82.41
2023-04-17T04:38:15.541Z,81.97
2023-04-17T04:40:43.807Z,81.60
2023-04-17T04:43:10.544Z,81.87
2023-04-17T04:45:37.170Z,82.24
2023-04-17T04:48:03.806Z,82.32
2023-04-17T04:50:30.948Z,82.04
2023-04-17T04:52:57.440Z,82.43
2023-04-17T04:55:24.554Z,83.11
2023-04-17T04:57:53.449Z,83.07
2023-04-17T05:00:20.497Z,83.05
2023-04-17T05:02:47.197Z,83.67
2023-04-17T05:05:13.736Z,82.55
2023-04-17T05:07:40.351Z,82.44
2023-04-17T05:10:07.370Z,81.46
2023-04-17T05:12:35.146Z,81.81
2023-04-17T05:15:01.653Z,82.00
2023-04-17T05:17:28.152Z,81.17
2023-04-17T05:19:54.646Z,80.37
2023-04-17T05:22:21.671Z,80.05
2023-04-17T05:24:48.193Z,80.28
2023-04-17T05:27:14.631Z,81.09
2023-04-17T05:29:41.106Z,81.28
2023-04-17T05:32:07.768Z,81.27
2023-04-17T05:34:34.408Z,81.86
2023-04-17T05:37:00.844Z,81.29
2023-04-17T05:39:28.383Z,81.26
2023-04-17T05:41:54.820Z,80.79
2023-04-17T05:44:21.291Z,80.08
2023-04-17T05:46:48.019Z,79.95
2023-04-17T05:49:14.539Z,78.11
2023-04-17T05:51:41.001Z,78.00
2023-04-17T05:54:07.497Z,78.68
2023-04-17T05:56:34.115Z,79.00
2023-04-17T05:59:00.887Z,78.29
2023-04-17T06:01:29.983Z,77.53
2023-04-17T06:03:57.171Z,77.66
2023-04-17T06:06:23.871Z,77.37
2023-04-17T06:08:52.451Z,76.24
2023-04-17T06:11:18.959Z,75.69
2023-04-17T06:13:45.453Z,76.38
2023-04-17T06:16:11.929Z,76.27
2023-04-17T06:18:38.681Z,75.92
2023-04-17T06:21:05.179Z,75.90
2023-04-17T06:23:31.675Z,74.45
2023-04-17T06:25:59.277Z,74.31
2023-04-17T06:28:25.762Z,74.36
2023-04-17T06:30:52.310Z,74.78
2023-04-17T06:33:18.796Z,74.76
2023-04-17T06:35:45.218Z,75.10
2023-04-17T06:38:11.717Z,74.52
2023-04-17T06:40:38.569Z,74.53
2023-04-17T06:43:05.112Z,75.12
2023-04-17T06:45:33.381Z,73.40
2023-04-17T06:47:59.881Z,72.92
2023-04-17T06:50:26.488Z,72.76
2023-04-17T06:52:52.986Z,73.86
2023-04-17T06:55:19.432Z,73.76
2023-04-17T06:57:46.182Z,73.97
2023-04-17T07:00:13.311Z,72.92
2023-04-17T07:02:39.807Z,72.71
2023-04-17T07:05:07.205Z,72.18
2023-04-17T07:07:35.583Z,73.09
2023-04-17T07:10:03.739Z,72.08
2023-04-17T07:12:30.461Z,71.48
2023-04-17T07:14:57.005Z,72.40
2023-04-17T07:17:23.619Z,71.46
2023-04-17T07:19:50.150Z,71.48
2023-04-17T07:22:16.634Z,71.33
2023-04-17T07:24:43.111Z,71.34
2023-04-17T07:27:09.907Z,70.27
2023-04-17T07:29:36.519Z,70.35
2023-04-17T07:32:03.948Z,69.50
2023-04-17T07:34:31.799Z,68.96
2023-04-17T07:36:58.245Z,67.21
2023-04-17T07:39:26.919Z,67.43
2023-04-17T07:41:53.378Z,67.77
2023-04-17T07:44:19.896Z,67.11
2023-04-17T07:46:46.431Z,64.99
2023-04-17T07:49:13.253Z,64.60
2023-04-17T07:51:41.256Z,64.67
2023-04-17T07:54:08.039Z,66.18
2023-04-17T07:56:35.029Z,64.22
2023-04-17T07:59:02.525Z,62.78
2023-04-17T08:01:28.978Z,62.02
2023-04-17T08:03:55.798Z,62.13
2023-04-17T08:06:22.427Z,61.24
2023-04-17T08:08:48.955Z,62.03
2023-04-17T08:11:15.545Z,61.10
2023-04-17T08:13:42.202Z,62.57
2023-04-17T08:16:09.104Z,60.56
2023-04-17T08:18:37.693Z,59.25
2023-04-17T08:21:04.554Z,60.73
2023-04-17T08:23:31.401Z,60.14
2023-04-17T08:25:58.373Z,60.31
2023-04-17T08:28:25.170Z,59.77
2023-04-17T08:30:51.884Z,61.26
2023-04-17T08:33:18.757Z,59.83
2023-04-17T08:35:45.428Z,59.45
2023-04-17T08:38:14.169Z,60.77
2023-04-17T08:40:43.097Z,60.60
2023-04-17T08:43:15.156Z,60.51
2023-04-17T08:45:54.061Z,58.88
2023-04-17T08:48:21.863Z,59.45
2023-04-17T08:50:51.409Z,59.98
2023-04-17T08:53:19.025Z,59.45
2023-04-17T08:55:46.827Z,59.52
2023-04-17T08:58:14.590Z,57.68
2023-04-17T09:00:42.620Z,57.67
2023-04-17T09:03:13.931Z,58.38
2023-04-17T09:05:43.569Z,58.59
2023-04-17T09:08:17.511Z,57.14
2023-04-17T09:10:46.034Z,59.00
2023-04-17T09:13:18.101Z,58.08
2023-04-17T09:15:45.900Z,56.68
2023-04-17T09:18:31.009Z,56.59
2023-04-17T09:20:59.776Z,57.31
2023-04-17T09:23:30.751Z,56.22
2023-04-17T09:26:09.397Z,57.22
2023-04-17T09:28:36.852Z,57.53
2023-04-17T09:31:24.294Z,56.64
2023-04-17T09:33:58.962Z,54.73
2023-04-17T09:36:27.453Z,53.93
2023-04-17T09:38:54.450Z,53.39
2023-04-17T09:41:25.363Z,55.02
2023-04-17T09:43:55.008Z,52.89
2023-04-17T09:46:46.025Z,53.69
2023-04-17T09:49:15.769Z,53.95
2023-04-17T09:51:42.730Z,53.54
2023-04-17T09:54:11.628Z,54.37
2023-04-17T09:56:38.900Z,54.52
2023-04-17T09:59:06.210Z,56.68
2023-04-17T10:01:33.947Z,56.66
2023-04-17T10:04:01.748Z,56.82
2023-04-17T10:06:29.108Z,54.78
2023-04-17T10:08:56.026Z,53.86
2023-04-17T10:11:24.830Z,54.46
2023-04-17T10:14:13.567Z,54.72
2023-04-17T10:16:43.609Z,55.25
2023-04-17T10:19:30.921Z,55.47
2023-04-17T10:22:15.758Z,55.06
2023-04-17T10:24:43.177Z,55.81
2023-04-17T10:27:25.630Z,55.89
2023-04-17T10:29:56.527Z,55.19
2023-04-17T10:32:28.958Z,52.50
2023-04-17T10:35:04.943Z,52.05
2023-04-17T10:37:46.959Z,50.48
2023-04-17T10:40:20.787Z,48.96
2023-04-17T10:43:06.593Z,49.21
2023-04-17T10:45:51.708Z,47.22
2023-04-17T10:48:36.727Z,46.37
2023-04-17T10:51:21.940Z,43.92
2023-04-17T10:53:50.411Z,44.61
2023-04-17T10:56:46.300Z,43.77
2023-04-17T10:59:20.732Z,43.26
2023-04-17T11:01:50.881Z,43.41
2023-04-17T11:04:25.389Z,42.42
2023-04-17T11:06:55.759Z,43.07
2023-04-17T11:09:24.035Z,42.69
2023-04-17T11:11:50.990Z,42.75
2023-04-17T11:14:22.808Z,43.48
2023-04-17T11:16:51.148Z,44.01
2023-04-17T11:19:23.273Z,41.97
2023-04-17T11:21:52.338Z,42.58
2023-04-17T11:24:32.104Z,44.00
2023-04-17T11:27:00.752Z,43.16
2023-04-17T11:29:28.115Z,42.10
2023-04-17T11:31:56.413Z,43.46
2023-04-17T11:34:23.247Z,42.59
2023-04-17T11:36:58.096Z,43.37
2023-04-17T11:39:26.764Z,44.01
2023-04-17T11:41:53.433Z,42.74
2023-04-17T11:44:21.152Z,42.82
2023-04-17T11:46:54.439Z,41.46
2023-04-17T11:49:31.502Z,42.94
2023-04-17T11:52:01.980Z,43.06
2023-04-17T11:54:40.153Z,42.91
2023-04-17T11:57:13.975Z,43.80
2023-04-17T11:59:45.583Z,43.32
2023-04-17T12:02:12.501Z,44.17
2023-04-17T12:04:39.967Z,44.10
2023-04-17T12:07:07.695Z,44.41
2023-04-17T12:09:34.948Z,45.80
2023-04-17T12:12:04.609Z,43.58
2023-04-17T12:14:31.596Z,43.89
2023-04-17T12:16:59.267Z,44.08
2023-04-17T12:19:28.037Z,45.22
2023-04-17T12:21:55.152Z,43.01
2023-04-17T12:24:24.881Z,42.27
2023-04-17T12:26:52.459Z,42.20
2023-04-17T12:29:26.479Z,42.58
2023-04-17T12:32:03.192Z,41.76
2023-04-17T12:34:29.787Z,42.60
2023-04-17T12:36:56.247Z,42.66
2023-04-17T12:39:23.031Z,42.54
2023-04-17T12:41:49.524Z,41.95
2023-04-17T12:44:15.989Z,41.73
2023-04-17T12:46:42.499Z,41.46
2023-04-17T12:49:09.058Z,40.58
2023-04-17T12:51:37.975Z,39.31
2023-04-17T12:54:04.736Z,39.97
2023-04-17T12:56:31.207Z,39.69
2023-04-17T12:58:57.993Z,39.69
2023-04-17T13:01:25.961Z,39.34
2023-04-17T13:03:52.830Z,40.39
2023-04-17T13:06:21.561Z,41.18
2023-04-17T13:08:48.093Z,40.55
2023-04-17T13:11:14.535Z,41.04
2023-04-17T13:13:41.004Z,41.38
2023-04-17T13:16:07.630Z,41.27
2023-04-17T13:18:34.205Z,41.54
2023-04-17T13:21:00.690Z,42.82
2023-04-17T13:23:27.185Z,43.29
2023-04-17T13:25:53.931Z,42.82
2023-04-17T13:28:20.417Z,42.69
2023-04-17T13:30:46.922Z,43.17
2023-04-17T13:33:13.373Z,43.11
2023-04-17T13:35:39.883Z,43.47
2023-04-17T13:38:06.573Z,42.00
2023-04-17T13:40:33.177Z,42.41
2023-04-17T13:43:00.488Z,42.74
2023-04-17T13:45:27.142Z,42.52
2023-04-17T13:47:53.647Z,43.42
2023-04-17T13:50:20.266Z,43.50
2023-04-17T13:52:46.741Z,43.53
2023-04-17T13:55:14.756Z,43.47
2023-04-17T13:57:41.367Z,44.56
2023-04-17T14:00:08.423Z,44.29
2023-04-17T14:02:35.066Z,43.48
2023-04-17T14:05:02.055Z,44.83
2023-04-17T14:07:30.003Z,45.88
2023-04-17T14:09:56.554Z,45.62
2023-04-17T14:12:23.555Z,44.61
2023-04-17T14:14:50.307Z,47.28
2023-04-17T14:17:16.832Z,47.05
2023-04-17T14:19:43.296Z,47.04
2023-04-17T14:22:09.849Z,43.80
2023-04-17T14:24:36.312Z,42.03
2023-04-17T14:27:03.058Z,41.17
2023-04-17T14:29:29.600Z,41.79
2023-04-17T14:31:56.178Z,40.29
2023-04-17T14:34:22.729Z,39.21
2023-04-17T14:36:49.196Z,39.08
2023-04-17T14:39:15.735Z,39.57
2023-04-17T14:41:42.373Z,39.83
2023-04-17T14:44:08.962Z,39.66
2023-04-17T14:46:35.747Z,38.38
2023-04-17T14:49:02.395Z,40.00
2023-04-17T14:51:30.691Z,39.99
2023-04-17T14:53:57.576Z,39.43
2023-04-17T14:56:24.391Z,39.60
2023-04-17T14:58:51.178Z,39.15
2023-04-17T15:01:17.801Z,38.70
2023-04-17T15:03:47.737Z,38.54
2023-04-17T15:06:15.248Z,39.04
2023-04-17T15:08:41.814Z,40.08
2023-04-17T15:11:08.764Z,39.17
2023-04-17T15:13:35.904Z,38.18
2023-04-17T15:16:02.715Z,39.86
2023-04-17T15:18:29.258Z,39.70
2023-04-17T15:20:56.083Z,39.89
2023-04-17T15:23:22.864Z,39.65
2023-04-17T15:25:49.417Z,40.72
2023-04-17T15:28:16.086Z,40.95
2023-04-17T15:30:42.750Z,40.03
2023-04-17T15:33:10.412Z,39.70
2023-04-17T15:35:37.508Z,39.78
2023-04-17T15:38:05.426Z,39.78
2023-04-17T15:40:31.934Z,39.52
2023-04-17T15:42:58.490Z,39.42
2023-04-17T15:45:26.246Z,39.80
2023-04-17T15:47:53.653Z,39.08
2023-04-17T15:50:21.396Z,39.50
2023-04-17T15:52:48.214Z,39.96
2023-04-17T15:55:15.386Z,40.16
2023-04-17T15:57:43.136Z,41.20
2023-04-17T16:00:10.433Z,41.33
2023-04-17T16:02:37.348Z,40.69
2023-04-17T16:05:04.355Z,41.60
2023-04-17T16:07:31.940Z,40.94
2023-04-17T16:09:58.604Z,40.63
2023-04-17T16:12:25.115Z,39.89
2023-04-17T16:14:51.585Z,39.00
2023-04-17T16:17:18.185Z,39.07
2023-04-17T16:19:44.708Z,38.87
2023-04-17T16:22:11.201Z,38.62
2023-04-17T16:24:37.705Z,39.33
2023-04-17T16:27:04.516Z,38.72
2023-04-17T16:29:30.975Z,38.27
2023-04-17T16:31:57.707Z,38.98
2023-04-17T16:34:24.320Z,38.31
2023-04-17T16:36:50.856Z,38.56
2023-04-17T16:39:17.341Z,37.41
2023-04-17T16:41:43.843Z,37.50
2023-04-17T16:44:10.848Z,37.32
2023-04-17T16:46:52.165Z,38.28
2023-04-17T16:49:24.118Z,38.21
2023-04-17T16:51:50.597Z,38.35
2023-04-17T16:54:18.763Z,38.82
2023-04-17T16:56:46.968Z,38.76
2023-04-17T16:59:13.644Z,38.69
2023-04-17T17:01:40.351Z,39.27
2023-04-17T17:04:06.980Z,39.69
2023-04-17T17:06:33.493Z,39.22
2023-04-17T17:09:00.589Z,40.22
2023-04-17T17:11:27.081Z,40.61
2023-04-17T17:13:53.529Z,40.01
2023-04-17T17:16:21.003Z,40.92
2023-04-17T17:18:48.411Z,40.71
2023-04-17T17:21:15.300Z,41.70
2023-04-17T17:23:41.920Z,41.56
2023-04-17T17:26:09.315Z,41.83
2023-04-17T17:28:35.942Z,41.90
2023-04-17T17:31:04.491Z,42.37
2023-04-17T17:33:32.238Z,42.93
2023-04-17T17:35:59.010Z,43.07
2023-04-17T17:38:28.567Z,42.87
2023-04-17T17:40:56.194Z,43.07
2023-04-17T17:43:23.029Z,44.40
2023-04-17T17:45:49.835Z,43.31
2023-04-17T17:48:18.061Z,44.63
2023-04-17T17:50:44.666Z,45.51
2023-04-17T17:53:11.442Z,45.31
2023-04-17T17:55:38.141Z,46.33
2023-04-17T17:58:09.056Z,45.48
2023-04-17T18:00:35.856Z,46.65
2023-04-17T18:03:02.516Z,48.03
2023-04-17T18:05:29.161Z,48.11
2023-04-17T18:07:55.822Z,48.09
2023-04-17T18:10:22.309Z,48.35
2023-04-17T18:12:49.757Z,48.07
2023-04-17T18:15:16.461Z,48.53
2023-04-17T18:17:42.989Z,48.32
2023-04-17T18:20:10.089Z,49.00
2023-04-17T18:22:38.321Z,49.06
2023-04-17T18:25:06.868Z,49.47
2023-04-17T18:27:36.235Z,50.28
2023-04-17T18:30:07.283Z,50.16
2023-04-17T18:32:34.504Z,50.43
2023-04-17T18:35:01.972Z,50.50
2023-04-17T18:37:28.915Z,51.58
2023-04-17T18:39:55.674Z,51.90
2023-04-17T18:42:22.976Z,53.16
2023-04-17T18:44:49.968Z,53.33
2023-04-17T18:47:16.762Z,54.43
2023-04-17T18:49:43.246Z,54.11
2023-04-17T18:52:09.791Z,55.84
2023-04-17T18:54:36.248Z,55.55
2023-04-17T18:57:02.858Z,56.71
2023-04-17T18:59:30.186Z,57.36
2023-04-17T19:01:56.748Z,57.86
2023-04-17T19:04:23.281Z,57.83
2023-04-17T19:06:49.746Z,58.82
2023-04-17T19:09:16.192Z,59.35
2023-04-17T19:11:42.825Z,59.24
2023-04-17T19:14:09.278Z,58.97
2023-04-17T19:16:35.876Z,59.83
2023-04-17T19:19:02.350Z,60.41
2023-04-17T19:21:31.154Z,59.72
2023-04-17T19:23:57.608Z,59.06
2023-04-17T19:26:24.114Z,59.73
2023-04-17T19:28:50.740Z,59.25
2023-04-17T19:31:17.220Z,59.72
2023-04-17T19:33:43.746Z,59.80
2023-04-17T19:36:10.388Z,59.67
2023-04-17T19:38:36.828Z,60.02
2023-04-17T19:41:17.892Z,60.36
2023-04-17T19:43:49.818Z,61.00
2023-04-17T19:46:16.828Z,60.41
2023-04-17T19:48:45.399Z,60.37
2023-04-17T19:51:12.922Z,61.40
2023-04-17T19:53:41.498Z,61.10
2023-04-17T19:56:09.362Z,60.84
2023-04-17T19:58:37.431Z,61.34
2023-04-17T20:01:04.388Z,61.59
2023-04-17T20:03:32.362Z,60.67
2023-04-17T20:05:59.673Z,60.72
2023-04-17T20:08:26.293Z,61.00
2023-04-17T20:10:52.834Z,61.23
2023-04-17T20:13:19.284Z,61.37
2023-04-17T20:15:45.843Z,60.71
2023-04-17T20:18:12.438Z,60.91
2023-04-17T20:20:39.209Z,61.52
2023-04-17T20:23:05.804Z,61.52
2023-04-17T20:25:32.279Z,61.85
2023-04-17T20:27:58.747Z,61.62
2023-04-17T20:30:25.547Z,61.95
2023-04-17T20:32:52.163Z,62.21
2023-04-17T20:35:23.650Z,62.36
2023-04-17T20:37:51.712Z,61.90
2023-04-17T20:40:18.777Z,62.27
2023-04-17T20:42:46.403Z,62.41
2023-04-17T20:45:13.076Z,62.72
2023-04-17T20:47:49.340Z,63.51
2023-04-17T20:50:22.484Z,63.51
2023-04-17T20:52:49.100Z,63.80
2023-04-17T20:55:18.294Z,64.57
2023-04-17T20:57:45.019Z,63.81
2023-04-17T21:00:12.194Z,64.94
2023-04-17T21:02:38.908Z,63.89
2023-04-17T21:05:06.827Z,64.11
2023-04-17T21:07:33.268Z,63.38
2023-04-17T21:09:59.735Z,63.37
2023-04-17T21:12:26.155Z,63.32
2023-04-17T21:14:52.645Z,62.90
2023-04-17T21:17:19.889Z,63.23
2023-04-17T21:19:47.619Z,63.18
2023-04-17T21:22:14.080Z,63.13
2023-04-17T21:24:40.649Z,62.61
2023-04-17T21:27:07.163Z,62.82
2023-04-17T21:29:33.651Z,62.53
2023-04-17T21:32:00.406Z,62.60
2023-04-17T21:34:26.954Z,62.92
2023-04-17T21:36:54.036Z,63.22
2023-04-17T21:39:21.080Z,63.14
2023-04-17T21:41:47.585Z,64.23
2023-04-17T21:44:15.174Z,64.18
2023-04-17T21:46:44.414Z,63.84
2023-04-17T21:49:11.166Z,63.50
2023-04-17T21:51:37.682Z,64.08
2023-04-17T21:54:04.930Z,63.49
2023-04-17T21:56:31.693Z,63.30
2023-04-17T21:58:58.256Z,64.93
2023-04-17T22:01:24.964Z,63.53
2023-04-17T22:03:51.465Z,63.50
2023-04-17T22:06:18.132Z,64.39
2023-04-17T22:08:44.658Z,63.86
2023-04-17T22:11:11.122Z,63.93
2023-04-17T22:13:37.583Z,63.48
2023-04-17T22:16:04.237Z,63.79
2023-04-17T22:18:30.695Z,63.85
2023-04-17T22:20:57.235Z,63.27
2023-04-17T22:23:23.735Z,63.55
2023-04-17T22:25:50.452Z,65.58
2023-04-17T22:28:17.115Z,65.61
2023-04-17T22:30:43.632Z,64.54
2023-04-17T22:33:10.128Z,65.57
2023-04-17T22:35:36.751Z,65.54
2023-04-17T22:38:03.191Z,64.76
2023-04-17T22:40:30.179Z,64.85
2023-04-17T22:42:56.740Z,65.85
2023-04-17T22:45:23.215Z,65.89
2023-04-17T22:47:49.710Z,65.78
2023-04-17T22:50:17.731Z,65.31
2023-04-17T22:52:44.276Z,64.71
2023-04-17T22:55:11.324Z,65.77
2023-04-17T22:57:37.763Z,64.32
2023-04-17T23:00:05.165Z,66.03
2023-04-17T23:02:32.251Z,65.63
2023-04-17T23:04:59.514Z,64.87
2023-04-17T23:07:26.236Z,64.67
2023-04-17T23:09:52.740Z,65.54
2023-04-17T23:12:19.770Z,65.45
2023-04-17T23:14:48.517Z,65.58
2023-04-17T23:17:15.166Z,65.49
2023-04-17T23:19:41.655Z,65.01
2023-04-17T23:22:09.428Z,66.44
2023-04-17T23:24:36.090Z,67.53
2023-04-17T23:27:03.001Z,66.65
2023-04-17T23:29:30.180Z,68.01
2023-04-17T23:31:56.951Z,69.17
2023-04-17T23:34:23.397Z,68.60
2023-04-17T23:36:49.887Z,69.24
2023-04-17T23:39:16.632Z,68.21
2023-04-17T23:41:43.215Z,68.06
2023-04-17T23:44:10.152Z,67.68
2023-04-17T23:46:37.031Z,68.40
2023-04-17T23:49:03.809Z,67.90
2023-04-17T23:51:30.450Z,68.02
2023-04-17T23:53:58.982Z,67.90
2023-04-17T23:56:26.040Z,67.61
2023-04-17T23:58:52.624Z,67.63
